createdAt,value
2023-05-19T00:00:31.099Z,101611.28
2023-05-19T00:03:21.921Z,101609.41
2023-05-19T00:05:54.509Z,101606.34
2023-05-19T00:08:25.998Z,101606.34
2023-05-19T00:10:55.626Z,101605.34
2023-05-19T00:13:27.069Z,101613.44
2023-05-19T00:15:56.559Z,101613.50
2023-05-19T00:18:26.655Z,101612.00
2023-05-19T00:20:55.679Z,101610.13
2023-05-19T00:23:24.704Z,101605.09
2023-05-19T00:25:54.134Z,101604.16
2023-05-19T00:28:23.175Z,101602.38
2023-05-19T00:30:53.910Z,101609.44
2023-05-19T00:33:23.091Z,101607.66
2023-05-19T00:35:52.034Z,101603.72
2023-05-19T00:38:22.156Z,101607.31
2023-05-19T00:40:51.608Z,101613.53
2023-05-19T00:43:20.671Z,101605.78
2023-05-19T00:45:49.531Z,101610.28
2023-05-19T00:48:19.974Z,101601.69
2023-05-19T00:50:51.268Z,101607.47
2023-05-19T00:53:20.579Z,101608.44
2023-05-19T00:55:50.340Z,101590.88
2023-05-19T00:58:20.804Z,101597.53
2023-05-19T01:00:49.767Z,101597.63
2023-05-19T01:03:20.933Z,101590.84
2023-05-19T01:05:49.919Z,101587.25
2023-05-19T01:08:19.163Z,101594.97
2023-05-19T01:10:48.046Z,101587.75
2023-05-19T01:13:17.544Z,101596.03
2023-05-19T01:16:02.623Z,101589.03
2023-05-19T01:18:46.569Z,101590.66
2023-05-19T01:21:54.474Z,101592.34
2023-05-19T01:24:55.003Z,101579.75
2023-05-19T01:27:56.472Z,101580.88
2023-05-19T01:30:34.948Z,101578.31
2023-05-19T01:33:08.440Z,101586.22
2023-05-19T01:35:40.169Z,101583.59
2023-05-19T01:38:12.538Z,101580.13
2023-05-19T01:40:43.913Z,101576.44
2023-05-19T01:43:16.992Z,101575.59
2023-05-19T01:45:49.021Z,101577.28
2023-05-19T01:48:18.962Z,101571.41
2023-05-19T01:50:48.653Z,101572.19
2023-05-19T01:53:17.635Z,101574.72
2023-05-19T01:55:51.049Z,101569.44
2023-05-19T01:58:39.023Z,101572.00
2023-05-19T02:01:23.136Z,101569.09
2023-05-19T02:04:19.792Z,101564.66
2023-05-19T02:07:03.161Z,101564.66
2023-05-19T02:09:42.167Z,101566.56
2023-05-19T02:12:20.712Z,101562.22
2023-05-19T02:14:56.008Z,101555.50
2023-05-19T02:17:33.228Z,101565.22
2023-05-19T02:20:02.267Z,101567.34
2023-05-19T02:22:31.565Z,101563.50
2023-05-19T02:25:00.370Z,101560.84
2023-05-19T02:27:30.051Z,101557.47
2023-05-19T02:29:58.979Z,101556.53
2023-05-19T02:32:29.677Z,101567.09
2023-05-19T02:34:58.467Z,101562.56
2023-05-19T02:37:28.700Z,101565.38
2023-05-19T02:39:57.501Z,101570.56
2023-05-19T02:42:26.471Z,101565.22
2023-05-19T02:44:56.904Z,101562.47
2023-05-19T02:47:26.055Z,101563.31
2023-05-19T02:49:56.188Z,101569.44
2023-05-19T02:52:25.220Z,101567.75
2023-05-19T02:54:54.016Z,101566.22
2023-05-19T02:57:23.064Z,101562.81
2023-05-19T02:59:52.218Z,101565.38
2023-05-19T03:02:21.587Z,101558.66
2023-05-19T03:04:51.004Z,101568.53
2023-05-19T03:07:25.102Z,101566.22
2023-05-19T03:09:54.272Z,101570.91
2023-05-19T03:12:23.256Z,101570.91
2023-05-19T03:14:52.270Z,101567.34
2023-05-19T03:17:21.372Z,101571.66
2023-05-19T03:19:51.230Z,101578.81
2023-05-19T03:22:22.083Z,101571.00
2023-05-19T03:24:51.619Z,101573.47
2023-05-19T03:27:20.728Z,101578.16
2023-05-19T03:29:49.567Z,101571.94
2023-05-19T03:32:18.929Z,101570.06
2023-05-19T03:34:48.709Z,101572.53
2023-05-19T03:37:18.191Z,101570.91
2023-05-19T03:39:48.701Z,101571.59
2023-05-19T03:42:18.270Z,101577.47
2023-05-19T03:44:47.105Z,101569.72
2023-05-19T03:47:16.517Z,101575.09
2023-05-19T03:50:09.975Z,101567.34
2023-05-19T03:52:52.203Z,101572.72
2023-05-19T03:55:31.034Z,101568.44
2023-05-19T03:58:00.162Z,101570.06
2023-05-19T04:00:28.914Z,101576.78
2023-05-19T04:02:58.269Z,101570.41
2023-05-19T04:05:27.408Z,101575.59
2023-05-19T04:07:56.603Z,101581.91
2023-05-19T04:10:25.506Z,101574.41
2023-05-19T04:12:58.474Z,101576.88
2023-05-19T04:15:28.414Z,101575.19
2023-05-19T04:17:57.728Z,101579.19
2023-05-19T04:20:26.563Z,101577.47
2023-05-19T04:22:55.706Z,101573.63
2023-05-19T04:25:25.399Z,101571.50
2023-05-19T04:27:57.705Z,101568.78
2023-05-19T04:30:28.639Z,101571.59
2023-05-19T04:33:01.246Z,101576.78
2023-05-19T04:35:30.520Z,101573.38
2023-05-19T04:38:01.971Z,101573.91
2023-05-19T04:40:34.259Z,101577.97
2023-05-19T04:43:04.209Z,101579.75
2023-05-19T04:45:37.731Z,101573.41
2023-05-19T04:48:08.215Z,101582.75
2023-05-19T04:50:38.606Z,101580.19
2023-05-19T04:53:07.790Z,101577.72
2023-05-19T04:55:38.687Z,101576.06
2023-05-19T04:58:08.638Z,101579.31
2023-05-19T05:00:38.954Z,101573.72
2023-05-19T05:03:10.051Z,101584.41
2023-05-19T05:05:39.068Z,101582.53
2023-05-19T05:08:08.140Z,101585.84
2023-05-19T05:10:42.139Z,101580.22
2023-05-19T05:13:12.079Z,101583.56
2023-05-19T05:15:43.851Z,101586.22
2023-05-19T05:18:14.446Z,101581.78
2023-05-19T05:20:44.521Z,101584.25
2023-05-19T05:23:15.265Z,101581.63
2023-05-19T05:25:48.173Z,101583.66
2023-05-19T05:28:18.675Z,101582.69
2023-05-19T05:30:50.485Z,101584.84
2023-05-19T05:33:22.406Z,101582.22
2023-05-19T05:35:51.627Z,101573.28
2023-05-19T05:38:20.916Z,101580.34
2023-05-19T05:40:50.464Z,101578.56
2023-05-19T05:43:19.712Z,101574.13
2023-05-19T05:45:56.283Z,101572.50
2023-05-19T05:48:27.024Z,101577.88
2023-05-19T05:50:58.155Z,101574.72
2023-05-19T05:53:37.040Z,101576.59
2023-05-19T05:56:08.130Z,101571.75
2023-05-19T05:58:45.269Z,101570.91
2023-05-19T06:01:16.941Z,101582.22
2023-05-19T06:03:46.766Z,101573.78
2023-05-19T06:06:21.354Z,101580.78
2023-05-19T06:08:50.649Z,101570.75
2023-05-19T06:11:20.117Z,101566.75
2023-05-19T06:13:50.108Z,101573.31
2023-05-19T06:16:37.819Z,101578.81
2023-05-19T06:19:07.103Z,101573.03
2023-05-19T06:21:35.938Z,101576.44
2023-05-19T06:24:05.274Z,101571.66
2023-05-19T06:26:34.025Z,101567.63
2023-05-19T06:29:03.326Z,101575.13
2023-05-19T06:31:33.791Z,101576.56
2023-05-19T06:34:16.396Z,101575.81
2023-05-19T06:36:45.397Z,101574.34
2023-05-19T06:39:15.599Z,101574.34
2023-05-19T06:41:44.725Z,101572.41
2023-05-19T06:44:25.991Z,101578.84
2023-05-19T06:46:55.248Z,101577.16
2023-05-19T06:49:29.428Z,101575.72
2023-05-19T06:51:58.522Z,101576.72
2023-05-19T06:54:28.638Z,101587.91
2023-05-19T06:56:58.860Z,101576.06
2023-05-19T06:59:28.437Z,101578.16
2023-05-19T07:01:57.926Z,101568.72
2023-05-19T07:04:28.570Z,101567.88
2023-05-19T07:06:58.763Z,101575.03
2023-05-19T07:09:28.699Z,101569.19
2023-05-19T07:11:59.010Z,101572.13
2023-05-19T07:14:28.634Z,101565.81
2023-05-19T07:16:57.653Z,101568.34
2023-05-19T07:19:28.374Z,101571.66
2023-05-19T07:21:59.380Z,101576.03
2023-05-19T07:24:28.727Z,101572.59
2023-05-19T07:26:58.702Z,101573.47
2023-05-19T07:29:27.912Z,101571.66
2023-05-19T07:31:58.216Z,101566.28
2023-05-19T07:34:28.952Z,101576.28
2023-05-19T07:36:58.033Z,101574.31
2023-05-19T07:39:29.801Z,101575.22
2023-05-19T07:41:59.430Z,101577.03
2023-05-19T07:44:31.340Z,101574.28
2023-05-19T07:47:00.835Z,101580.91
2023-05-19T07:49:31.484Z,101573.66
2023-05-19T07:52:00.421Z,101575.81
2023-05-19T07:54:29.647Z,101576.28
2023-05-19T07:56:58.636Z,101588.44
2023-05-19T07:59:28.036Z,101580.94
2023-05-19T08:01:57.013Z,101576.59
2023-05-19T08:04:26.293Z,101575.28
2023-05-19T08:06:56.624Z,101581.06
2023-05-19T08:09:26.168Z,101574.38
2023-05-19T08:11:55.174Z,101584.84
2023-05-19T08:14:24.401Z,101578.91
2023-05-19T08:16:53.434Z,101580.59
2023-05-19T08:19:22.904Z,101577.78
2023-05-19T08:21:51.922Z,101573.63
2023-05-19T08:24:22.750Z,101567.75
2023-05-19T08:26:51.786Z,101578.13
2023-05-19T08:29:21.100Z,101578.13
2023-05-19T08:31:50.297Z,101579.66
2023-05-19T08:34:19.604Z,101574.63
2023-05-19T08:36:48.563Z,101580.50
2023-05-19T08:39:19.715Z,101567.84
2023-05-19T08:41:50.082Z,101572.50
2023-05-19T08:44:19.758Z,101573.81
2023-05-19T08:46:49.358Z,101574.47
2023-05-19T08:49:27.612Z,101577.97
2023-05-19T08:52:07.455Z,101571.72
2023-05-19T08:54:47.194Z,101571.19
2023-05-19T08:57:18.372Z,101576.75
2023-05-19T08:59:49.088Z,101582.25
2023-05-19T09:02:19.648Z,101582.50
2023-05-19T09:04:49.841Z,101579.59
2023-05-19T09:07:19.993Z,101582.88
2023-05-19T09:09:50.101Z,101582.50
2023-05-19T09:12:20.517Z,101583.63
2023-05-19T09:14:50.228Z,101585.13
2023-05-19T09:17:19.311Z,101584.84
2023-05-19T09:19:49.351Z,101578.06
2023-05-19T09:22:19.374Z,101582.13
2023-05-19T09:24:49.359Z,101579.84
2023-05-19T09:27:24.497Z,101572.47
2023-05-19T09:29:53.864Z,101575.97
2023-05-19T09:32:27.695Z,101575.53
2023-05-19T09:34:57.227Z,101577.84
2023-05-19T09:37:29.244Z,101574.69
2023-05-19T09:39:58.666Z,101575.03
2023-05-19T09:42:30.258Z,101571.72
2023-05-19T09:45:04.067Z,101574.72
2023-05-19T09:47:38.371Z,101570.69
2023-05-19T09:50:10.361Z,101575.69
2023-05-19T09:52:41.011Z,101573.25
2023-05-19T09:55:13.209Z,101580.97
2023-05-19T09:57:46.348Z,101580.75
2023-05-19T10:00:17.557Z,101579.09
2023-05-19T10:02:48.875Z,101576.25
2023-05-19T10:05:20.578Z,101576.47
2023-05-19T10:07:53.130Z,101578.28
2023-05-19T10:10:23.532Z,101574.47
2023-05-19T10:12:56.311Z,101574.94
2023-05-19T10:15:26.487Z,101573.59
2023-05-19T10:17:57.502Z,101565.53
2023-05-19T10:20:28.552Z,101569.69
2023-05-19T10:22:57.657Z,101560.78
2023-05-19T10:25:27.137Z,101562.88
2023-05-19T10:28:03.244Z,101550.44
2023-05-19T10:30:38.470Z,101559.66
2023-05-19T10:33:13.327Z,101562.16
2023-05-19T10:36:17.624Z,101561.75
2023-05-19T10:38:57.793Z,101562.66
2023-05-19T10:41:39.209Z,101556.44
2023-05-19T10:44:17.680Z,101551.84
2023-05-19T10:46:47.240Z,101555.13
2023-05-19T10:49:22.845Z,101551.94
2023-05-19T10:51:56.166Z,101552.38
2023-05-19T10:54:47.273Z,101549.72
2023-05-19T10:57:17.713Z,101549.28
2023-05-19T10:59:49.997Z,101554.16
2023-05-19T11:02:41.210Z,101554.38
2023-05-19T11:05:14.548Z,101553.31
2023-05-19T11:07:46.139Z,101553.97
2023-05-19T11:10:15.214Z,101557.25
2023-05-19T11:12:46.715Z,101557.66
2023-05-19T11:15:18.032Z,101555.75
2023-05-19T11:17:49.918Z,101557.53
2023-05-19T11:20:25.302Z,101557.31
2023-05-19T11:23:08.706Z,101556.06
2023-05-19T11:25:46.960Z,101562.72
2023-05-19T11:28:19.558Z,101558.25
2023-05-19T11:30:51.865Z,101549.88
2023-05-19T11:33:27.255Z,101555.34
2023-05-19T11:35:59.045Z,101554.09
2023-05-19T11:38:31.015Z,101554.94
2023-05-19T11:40:59.868Z,101561.31
2023-05-19T11:43:29.089Z,101562.06
2023-05-19T11:45:59.478Z,101563.09
2023-05-19T11:48:31.283Z,101560.66
2023-05-19T11:51:01.864Z,101557.78
2023-05-19T11:53:33.230Z,101559.41
2023-05-19T11:56:05.639Z,101556.63
2023-05-19T11:58:34.754Z,101555.22
2023-05-19T12:01:06.984Z,101557.56
2023-05-19T12:03:36.327Z,101559.13
2023-05-19T12:06:08.487Z,101563.91
2023-05-19T12:08:38.544Z,101564.22
2023-05-19T12:11:08.380Z,101560.47
2023-05-19T12:13:38.016Z,101557.81
2023-05-19T12:16:09.909Z,101554.00
2023-05-19T12:18:40.432Z,101562.41
2023-05-19T12:21:09.339Z,101557.59
2023-05-19T12:23:40.101Z,101558.22
2023-05-19T12:26:09.740Z,101547.50
2023-05-19T12:28:38.931Z,101556.66
2023-05-19T12:31:09.367Z,101555.69
2023-05-19T12:33:38.587Z,101555.06
2023-05-19T12:36:08.982Z,101562.47
2023-05-19T12:38:39.665Z,101554.94
2023-05-19T12:41:08.584Z,101555.22
2023-05-19T12:43:38.234Z,101550.75
2023-05-19T12:46:16.677Z,101555.09
2023-05-19T12:48:46.840Z,101550.16
2023-05-19T12:51:19.280Z,101550.38
2023-05-19T12:53:51.621Z,101548.66
2023-05-19T12:56:21.294Z,101539.75
2023-05-19T12:58:56.159Z,101537.38
2023-05-19T13:01:26.414Z,101543.97
2023-05-19T13:03:55.763Z,101541.19
2023-05-19T13:06:24.886Z,101542.19
2023-05-19T13:08:53.991Z,101544.41
2023-05-19T13:11:22.692Z,101550.66
2023-05-19T13:13:51.880Z,101551.69
2023-05-19T13:16:20.844Z,101550.00
2023-05-19T13:18:51.601Z,101547.47
2023-05-19T13:21:20.547Z,101551.28
2023-05-19T13:23:49.681Z,101547.22
2023-05-19T13:26:18.591Z,101552.28
2023-05-19T13:28:47.936Z,101551.88
2023-05-19T13:31:16.757Z,101550.88
2023-05-19T13:33:45.939Z,101552.69
2023-05-19T13:36:16.286Z,101545.34
2023-05-19T13:38:45.435Z,101537.75
2023-05-19T13:44:03.336Z,101537.25
2023-05-19T13:46:43.871Z,101544.34
2023-05-19T13:49:14.192Z,101543.72
2023-05-19T13:51:32.937Z,101541.47
2023-05-19T13:51:45.324Z,101538.88
2023-05-19T13:54:14.750Z,101537.91
2023-05-19T13:56:46.087Z,101544.91
2023-05-19T13:59:15.823Z,101544.91
2023-05-19T14:01:45.593Z,101539.94
2023-05-19T14:04:15.293Z,101537.69
2023-05-19T14:06:45.944Z,101544.03
2023-05-19T14:09:15.076Z,101534.06
2023-05-19T14:11:44.612Z,101538.50
2023-05-19T14:14:13.629Z,101551.69
2023-05-19T14:16:42.919Z,101537.69
2023-05-19T14:19:12.521Z,101543.72
2023-05-19T14:21:41.356Z,101542.16
2023-05-19T14:24:11.961Z,101547.56
2023-05-19T14:26:40.797Z,101544.50
2023-05-19T14:29:09.919Z,101545.22
2023-05-19T14:31:38.956Z,101546.63
2023-05-19T14:34:08.141Z,101547.47
2023-05-19T14:36:36.950Z,101553.41
2023-05-19T14:39:06.059Z,101543.31
2023-05-19T14:41:36.376Z,101553.31
2023-05-19T14:44:07.009Z,101551.75
2023-05-19T14:46:36.253Z,101549.50
2023-05-19T14:49:06.552Z,101547.94
2023-05-19T14:51:35.501Z,101544.31
2023-05-19T14:54:04.953Z,101543.16
2023-05-19T14:56:35.153Z,101546.44
2023-05-19T14:59:04.957Z,101548.00
2023-05-19T15:01:33.818Z,101545.97
2023-05-19T15:04:02.977Z,101548.50
2023-05-19T15:06:31.824Z,101550.22
2023-05-19T15:09:01.013Z,101555.75
2023-05-19T15:11:30.315Z,101562.75
2023-05-19T15:14:00.736Z,101560.94
2023-05-19T15:16:29.538Z,101565.28
2023-05-19T15:18:58.881Z,101560.31
2023-05-19T15:21:28.259Z,101557.16
2023-05-19T15:23:57.364Z,101563.41
2023-05-19T15:26:27.632Z,101565.31
2023-05-19T15:29:00.130Z,101560.22
2023-05-19T15:31:29.105Z,101558.56
2023-05-19T15:33:58.197Z,101560.22
2023-05-19T15:36:27.055Z,101554.09
2023-05-19T15:38:56.243Z,101559.06
2023-05-19T15:41:25.657Z,101551.75
2023-05-19T15:43:54.777Z,101549.41
2023-05-19T15:46:25.073Z,101548.56
2023-05-19T15:48:54.238Z,101557.47
2023-05-19T15:51:23.722Z,101554.09
2023-05-19T15:53:53.237Z,101554.72
2023-05-19T15:56:22.637Z,101549.72
2023-05-19T15:58:51.983Z,101549.63
2023-05-19T16:01:21.669Z,101549.09
2023-05-19T16:03:52.234Z,101537.53
2023-05-19T16:06:21.583Z,101537.97
2023-05-19T16:08:50.685Z,101535.53
2023-05-19T16:11:20.702Z,101538.19
2023-05-19T16:13:50.002Z,101535.44
2023-05-19T16:16:18.928Z,101532.56
2023-05-19T16:18:48.119Z,101538.81
2023-05-19T16:21:18.285Z,101536.06
2023-05-19T16:23:47.690Z,101536.25
2023-05-19T16:26:16.422Z,101530.97
2023-05-19T16:28:45.552Z,101535.53
2023-05-19T16:31:14.519Z,101526.63
2023-05-19T16:33:43.622Z,101535.31
2023-05-19T16:36:12.559Z,101532.88
2023-05-19T16:38:42.992Z,101534.59
2023-05-19T16:41:13.211Z,101536.50
2023-05-19T16:43:42.309Z,101540.00
2023-05-19T16:46:12.396Z,101534.19
2023-05-19T16:48:41.715Z,101532.38
2023-05-19T16:51:10.504Z,101528.97
2023-05-19T16:53:40.067Z,101535.13
2023-05-19T16:56:10.275Z,101524.50
2023-05-19T16:58:39.310Z,101534.81
2023-05-19T17:01:09.933Z,101532.88
2023-05-19T17:03:39.248Z,101537.97
2023-05-19T17:06:08.271Z,101523.97
2023-05-19T17:08:37.394Z,101531.19
2023-05-19T17:11:06.589Z,101531.09
2023-05-19T17:13:37.281Z,101527.78
2023-05-19T17:16:06.641Z,101536.72
2023-05-19T17:18:35.888Z,101526.31
2023-05-19T17:21:05.418Z,101533.34
2023-05-19T17:23:34.647Z,101529.91
2023-05-19T17:26:03.609Z,101535.22
2023-05-19T17:28:32.678Z,101528.13
2023-05-19T17:31:03.264Z,101525.50
2023-05-19T17:33:32.552Z,101538.84
2023-05-19T17:36:04.204Z,101530.69
2023-05-19T17:38:33.548Z,101536.94
2023-05-19T17:41:04.823Z,101530.69
2023-05-19T17:43:34.087Z,101522.22
2023-05-19T17:46:04.431Z,101527.28
2023-05-19T17:48:33.749Z,101527.50
2023-05-19T17:51:05.127Z,101529.09
2023-05-19T17:53:36.613Z,101529.72
2023-05-19T17:56:09.676Z,101536.00
2023-05-19T17:58:39.627Z,101538.13
2023-05-19T18:01:11.052Z,101535.22
2023-05-19T18:03:40.967Z,101532.19
2023-05-19T18:06:11.826Z,101539.38
2023-05-19T18:08:43.186Z,101542.03
2023-05-19T18:11:13.486Z,101533.25
2023-05-19T18:13:43.005Z,101526.38
2023-05-19T18:16:14.515Z,101533.25
2023-05-19T18:18:46.368Z,101537.09
2023-05-19T18:21:17.851Z,101529.84
2023-05-19T18:23:48.179Z,101537.09
2023-05-19T18:26:17.163Z,101537.28
2023-05-19T18:28:46.458Z,101537.28
2023-05-19T18:31:19.540Z,101539.72
2023-05-19T18:33:49.286Z,101541.63
2023-05-19T18:36:18.075Z,101550.44
2023-05-19T18:38:51.064Z,101552.22
2023-05-19T18:41:19.989Z,101553.31
2023-05-19T18:43:49.668Z,101554.16
2023-05-19T18:46:20.611Z,101557.88
2023-05-19T18:48:50.720Z,101557.78
2023-05-19T18:51:21.359Z,101559.44
2023-05-19T18:53:50.798Z,101559.78
2023-05-19T18:56:26.174Z,101564.34
2023-05-19T18:58:55.941Z,101563.50
2023-05-19T19:01:26.275Z,101562.97
2023-05-19T19:03:55.448Z,101567.31
2023-05-19T19:06:24.413Z,101570.38
2023-05-19T19:08:53.559Z,101576.44
2023-05-19T19:11:22.567Z,101572.31
2023-05-19T19:13:54.548Z,101580.25
2023-05-19T19:16:24.995Z,101579.41
2023-05-19T19:18:54.518Z,101580.66
2023-05-19T19:21:24.126Z,101580.66
2023-05-19T19:23:55.515Z,101575.38
2023-05-19T19:26:25.412Z,101581.41
2023-05-19T19:28:54.603Z,101579.63
2023-05-19T19:31:23.797Z,101577.91
2023-05-19T19:33:58.982Z,101580.66
2023-05-19T19:36:28.235Z,101579.94
2023-05-19T19:38:57.458Z,101579.72
2023-05-19T19:41:26.573Z,101583.31
2023-05-19T19:43:55.720Z,101586.16
2023-05-19T19:46:24.754Z,101584.59
2023-05-19T19:48:59.221Z,101587.03
2023-05-19T19:51:28.569Z,101582.59
2023-05-19T19:53:58.090Z,101585.34
2023-05-19T19:56:27.724Z,101586.16
2023-05-19T19:58:59.026Z,101592.44
2023-05-19T20:01:28.358Z,101584.50
2023-05-19T20:03:58.943Z,101590.31
2023-05-19T20:06:28.024Z,101592.56
2023-05-19T20:08:57.089Z,101588.97
2023-05-19T20:11:26.824Z,101588.00
2023-05-19T20:13:55.993Z,101590.63
2023-05-19T20:16:25.218Z,101585.13
2023-05-19T20:18:54.685Z,101584.50
2023-05-19T20:21:24.832Z,101584.28
2023-05-19T20:23:53.945Z,101591.47
2023-05-19T20:26:22.760Z,101588.81
2023-05-19T20:28:52.066Z,101586.94
2023-05-19T20:31:21.578Z,101599.22
2023-05-19T20:33:50.778Z,101593.19
2023-05-19T20:36:19.924Z,101597.13
2023-05-19T20:38:50.334Z,101599.94
2023-05-19T20:41:19.179Z,101598.03
2023-05-19T20:43:48.215Z,101595.31
2023-05-19T20:46:17.291Z,101597.13
2023-05-19T20:48:46.408Z,101600.78
2023-05-19T20:51:15.243Z,101591.97
2023-05-19T20:53:44.286Z,101586.69
2023-05-19T20:56:14.914Z,101596.53
2023-05-19T20:58:44.050Z,101594.63
2023-05-19T21:01:12.936Z,101596.53
2023-05-19T21:03:42.058Z,101591.16
2023-05-19T21:06:10.975Z,101597.19
2023-05-19T21:08:40.111Z,101596.13
2023-05-19T21:11:08.901Z,101601.44
2023-05-19T21:13:39.676Z,101594.53
2023-05-19T21:16:08.881Z,101599.75
2023-05-19T21:18:38.056Z,101600.41
2023-05-19T21:21:07.081Z,101599.66
2023-05-19T21:23:36.177Z,101609.41
2023-05-19T21:26:06.033Z,101604.97
2023-05-19T21:28:35.092Z,101603.16
2023-05-19T21:31:06.118Z,101602.94
2023-05-19T21:33:35.286Z,101596.69
2023-05-19T21:36:04.122Z,101595.94
2023-05-19T21:38:33.188Z,101594.47
2023-05-19T21:41:02.028Z,101596.22
2023-05-19T21:43:31.188Z,101592.81
2023-05-19T21:45:59.951Z,101597.94
2023-05-19T21:48:31.017Z,101595.19
2023-05-19T21:50:59.944Z,101594.63
2023-05-19T21:53:29.190Z,101601.63
2023-05-19T21:55:58.109Z,101583.06
2023-05-19T21:58:27.435Z,101588.34
2023-05-19T22:00:56.254Z,101597.84
2023-05-19T22:03:25.479Z,101594.47
2023-05-19T22:05:57.629Z,101591.00
2023-05-19T22:08:26.766Z,101598.22
2023-05-19T22:10:55.760Z,101598.03
2023-05-19T22:13:24.965Z,101597.59
2023-05-19T22:15:53.815Z,101594.72
2023-05-19T22:18:22.982Z,101591.16
2023-05-19T22:20:52.061Z,101599.19
2023-05-19T22:23:22.534Z,101597.19
2023-05-19T22:25:51.417Z,101595.31
2023-05-19T22:28:20.527Z,101602.47
2023-05-19T22:30:49.340Z,101594.63
2023-05-19T22:33:18.335Z,101598.03
2023-05-19T22:35:47.211Z,101587.63
2023-05-19T22:38:16.317Z,101593.91
2023-05-19T22:40:46.597Z,101593.78
2023-05-19T22:43:15.667Z,101588.34
2023-05-19T22:45:44.575Z,101592.91
2023-05-19T22:48:13.666Z,101596.44
2023-05-19T22:50:42.498Z,101606.16
2023-05-19T22:53:11.655Z,101605.22
2023-05-19T22:55:40.594Z,101603.41
2023-05-19T22:58:11.003Z,101602.47
2023-05-19T23:00:39.712Z,101593.78
2023-05-19T23:03:08.765Z,101592.19
2023-05-19T23:05:37.494Z,101593.66
2023-05-19T23:08:07.171Z,101591.00
2023-05-19T23:10:35.947Z,101591.97
2023-05-19T23:13:05.061Z,101591.00
2023-05-19T23:15:35.357Z,101594.47
2023-05-19T23:18:07.292Z,101583.94
2023-05-19T23:20:36.566Z,101590.06
2023-05-19T23:23:05.816Z,101595.31
2023-05-19T23:25:34.846Z,101592.56
2023-05-19T23:28:04.217Z,101595.94
2023-05-19T23:30:37.408Z,101589.91
2023-05-19T23:33:06.406Z,101591.47
2023-05-19T23:35:35.448Z,101585.34
2023-05-19T23:38:04.772Z,101580.53
2023-05-19T23:40:33.622Z,101584.13
2023-05-19T23:43:02.639Z,101583.50
2023-05-19T23:45:31.499Z,101575.53
2023-05-19T23:48:02.105Z,101583.41
2023-05-19T23:50:30.919Z,101585.06
2023-05-19T23:53:00.804Z,101583.50
2023-05-19T23:55:29.553Z,101581.69
2023-05-19T23:57:58.635Z,101573.63
